sensor_id;sensor_type;location;lat;lon;timestamp;P1;durP1;ratioP1;P2;durP2;ratioP2
35442;SDS011;21561;55.654;37.592;2024-01-30T00:02:17;21.58;;;8.02;;
35442;SDS011;21561;55.654;37.592;2024-01-30T00:04:43;20.42;;;8.38;;
35442;SDS011;21561;55.654;37.592;2024-01-30T00:07:10;20.30;;;7.57;;
35442;SDS011;21561;55.654;37.592;2024-01-30T00:09:38;19.30;;;7.63;;
35442;SDS011;21561;55.654;37.592;2024-01-30T00:12:06;18.15;;;7.00;;
35442;SDS011;21561;55.654;37.592;2024-01-30T00:14:33;21.02;;;8.57;;
35442;SDS011;21561;55.654;37.592;2024-01-30T00:17:00;20.40;;;7.78;;
35442;SDS011;21561;55.654;37.592;2024-01-30T00:19:27;22.27;;;9.00;;
35442;SDS011;21561;55.654;37.592;2024-01-30T00:21:54;18.33;;;7.03;;
35442;SDS011;21561;55.654;37.592;2024-01-30T00:24:21;20.13;;;7.97;;
35442;SDS011;21561;55.654;37.592;2024-01-30T00:26:48;19.13;;;7.82;;
35442;SDS011;21561;55.654;37.592;2024-01-30T00:29:15;20.40;;;8.15;;
35442;SDS011;21561;55.654;37.592;2024-01-30T00:31:46;17.77;;;7.30;;
35442;SDS011;21561;55.654;37.592;2024-01-30T00:34:13;20.85;;;8.15;;
35442;SDS011;21561;55.654;37.592;2024-01-30T00:36:40;19.27;;;7.57;;
35442;SDS011;21561;55.654;37.592;2024-01-30T00:39:07;19.17;;;8.32;;
35442;SDS011;21561;55.654;37.592;2024-01-30T00:41:35;18.98;;;7.93;;
35442;SDS011;21561;55.654;37.592;2024-01-30T00:44:02;19.77;;;8.07;;
35442;SDS011;21561;55.654;37.592;2024-01-30T00:46:29;20.40;;;8.00;;
35442;SDS011;21561;55.654;37.592;2024-01-30T00:48:56;20.20;;;8.30;;
35442;SDS011;21561;55.654;37.592;2024-01-30T00:51:23;19.88;;;8.05;;
35442;SDS011;21561;55.654;37.592;2024-01-30T00:53:50;19.10;;;7.35;;
35442;SDS011;21561;55.654;37.592;2024-01-30T00:56:19;20.95;;;8.90;;
35442;SDS011;21561;55.654;37.592;2024-01-30T00:58:46;21.98;;;7.93;;
35442;SDS011;21561;55.654;37.592;2024-01-30T01:01:13;17.58;;;6.82;;
35442;SDS011;21561;55.654;37.592;2024-01-30T01:03:41;20.60;;;8.52;;
35442;SDS011;21561;55.654;37.592;2024-01-30T01:06:10;19.60;;;8.00;;
35442;SDS011;21561;55.654;37.592;2024-01-30T01:08:37;20.67;;;8.23;;
35442;SDS011;21561;55.654;37.592;2024-01-30T01:11:04;19.35;;;8.13;;
35442;SDS011;21561;55.654;37.592;2024-01-30T01:13:31;20.05;;;8.07;;
35442;SDS011;21561;55.654;37.592;2024-01-30T01:15:58;19.25;;;7.63;;
35442;SDS011;21561;55.654;37.592;2024-01-30T01:18:25;20.42;;;7.80;;
35442;SDS011;21561;55.654;37.592;2024-01-30T01:20:53;18.35;;;6.63;;
35442;SDS011;21561;55.654;37.592;2024-01-30T01:23:20;21.13;;;7.70;;
35442;SDS011;21561;55.654;37.592;2024-01-30T01:25:47;18.98;;;7.07;;
35442;SDS011;21561;55.654;37.592;2024-01-30T01:28:14;19.35;;;7.38;;
35442;SDS011;21561;55.654;37.592;2024-01-30T01:30:41;18.65;;;7.85;;
35442;SDS011;21561;55.654;37.592;2024-01-30T01:33:08;19.83;;;7.55;;
35442;SDS011;21561;55.654;37.592;2024-01-30T01:35:35;21.10;;;8.15;;
35442;SDS011;21561;55.654;37.592;2024-01-30T01:38:02;19.50;;;7.88;;
35442;SDS011;21561;55.654;37.592;2024-01-30T01:40:29;19.63;;;7.72;;
35442;SDS011;21561;55.654;37.592;2024-01-30T01:42:57;17.77;;;7.50;;
35442;SDS011;21561;55.654;37.592;2024-01-30T01:45:24;20.23;;;8.27;;
35442;SDS011;21561;55.654;37.592;2024-01-30T01:47:51;20.02;;;7.93;;
35442;SDS011;21561;55.654;37.592;2024-01-30T01:50:19;20.10;;;8.18;;
35442;SDS011;21561;55.654;37.592;2024-01-30T01:52:48;20.40;;;8.35;;
35442;SDS011;21561;55.654;37.592;2024-01-30T01:55:17;19.67;;;7.93;;
35442;SDS011;21561;55.654;37.592;2024-01-30T01:57:52;18.15;;;7.43;;
35442;SDS011;21561;55.654;37.592;2024-01-30T02:00:20;20.00;;;7.90;;
35442;SDS011;21561;55.654;37.592;2024-01-30T02:02:47;21.15;;;8.40;;
35442;SDS011;21561;55.654;37.592;2024-01-30T02:05:14;20.58;;;8.07;;
35442;SDS011;21561;55.654;37.592;2024-01-30T02:07:43;18.70;;;7.82;;
35442;SDS011;21561;55.654;37.592;2024-01-30T02:10:10;19.70;;;8.00;;
35442;SDS011;21561;55.654;37.592;2024-01-30T02:12:38;21.42;;;8.75;;
35442;SDS011;21561;55.654;37.592;2024-01-30T02:15:06;19.25;;;7.93;;
35442;SDS011;21561;55.654;37.592;2024-01-30T02:17:39;19.08;;;8.55;;
35442;SDS011;21561;55.654;37.592;2024-01-30T02:20:07;19.83;;;8.07;;
35442;SDS011;21561;55.654;37.592;2024-01-30T02:22:35;18.58;;;7.25;;
35442;SDS011;21561;55.654;37.592;2024-01-30T02:25:04;20.02;;;8.00;;
35442;SDS011;21561;55.654;37.592;2024-01-30T02:27:31;21.20;;;7.95;;
35442;SDS011;21561;55.654;37.592;2024-01-30T02:29:58;21.55;;;8.57;;
35442;SDS011;21561;55.654;37.592;2024-01-30T02:32:25;20.45;;;7.97;;
35442;SDS011;21561;55.654;37.592;2024-01-30T02:34:52;19.83;;;7.93;;
35442;SDS011;21561;55.654;37.592;2024-01-30T02:37:19;22.42;;;9.02;;
35442;SDS011;21561;55.654;37.592;2024-01-30T02:39:46;18.13;;;6.97;;
35442;SDS011;21561;55.654;37.592;2024-01-30T02:42:13;18.98;;;8.05;;
35442;SDS011;21561;55.654;37.592;2024-01-30T02:44:40;20.23;;;8.35;;
35442;SDS011;21561;55.654;37.592;2024-01-30T02:47:07;19.45;;;7.45;;
35442;SDS011;21561;55.654;37.592;2024-01-30T02:49:34;20.60;;;8.25;;
35442;SDS011;21561;55.654;37.592;2024-01-30T02:52:01;20.10;;;8.60;;
35442;SDS011;21561;55.654;37.592;2024-01-30T02:54:28;22.65;;;8.20;;
35442;SDS011;21561;55.654;37.592;2024-01-30T02:56:57;22.63;;;9.40;;
35442;SDS011;21561;55.654;37.592;2024-01-30T02:59:24;18.77;;;7.93;;
35442;SDS011;21561;55.654;37.592;2024-01-30T03:01:51;19.90;;;7.72;;
35442;SDS011;21561;55.654;37.592;2024-01-30T03:04:18;20.98;;;8.68;;
35442;SDS011;21561;55.654;37.592;2024-01-30T03:06:45;21.33;;;8.13;;
35442;SDS011;21561;55.654;37.592;2024-01-30T03:09:15;19.67;;;8.18;;
35442;SDS011;21561;55.654;37.592;2024-01-30T03:11:45;20.77;;;8.45;;
35442;SDS011;21561;55.654;37.592;2024-01-30T03:14:12;19.27;;;7.68;;
35442;SDS011;21561;55.654;37.592;2024-01-30T03:16:38;20.50;;;8.10;;
35442;SDS011;21561;55.654;37.592;2024-01-30T03:19:06;20.92;;;8.25;;
35442;SDS011;21561;55.654;37.592;2024-01-30T03:21:35;19.88;;;7.88;;
35442;SDS011;21561;55.654;37.592;2024-01-30T03:24:02;18.35;;;7.75;;
35442;SDS011;21561;55.654;37.592;2024-01-30T03:26:29;18.20;;;7.13;;
35442;SDS011;21561;55.654;37.592;2024-01-30T03:28:57;20.92;;;8.02;;
35442;SDS011;21561;55.654;37.592;2024-01-30T03:31:24;19.60;;;8.23;;
35442;SDS011;21561;55.654;37.592;2024-01-30T03:33:51;20.60;;;7.97;;
35442;SDS011;21561;55.654;37.592;2024-01-30T03:36:18;19.40;;;8.52;;
35442;SDS011;21561;55.654;37.592;2024-01-30T03:38:45;18.60;;;7.40;;
35442;SDS011;21561;55.654;37.592;2024-01-30T03:41:12;20.00;;;7.93;;
35442;SDS011;21561;55.654;37.592;2024-01-30T03:43:39;23.13;;;8.52;;
35442;SDS011;21561;55.654;37.592;2024-01-30T03:46:07;19.42;;;7.88;;
35442;SDS011;21561;55.654;37.592;2024-01-30T03:48:34;19.33;;;7.20;;
35442;SDS011;21561;55.654;37.592;2024-01-30T03:51:01;19.92;;;8.20;;
35442;SDS011;21561;55.654;37.592;2024-01-30T03:53:28;17.70;;;6.80;;
35442;SDS011;21561;55.654;37.592;2024-01-30T03:55:54;20.65;;;7.82;;
35442;SDS011;21561;55.654;37.592;2024-01-30T03:58:22;20.20;;;7.78;;
35442;SDS011;21561;55.654;37.592;2024-01-30T04:00:49;20.63;;;7.82;;
35442;SDS011;21561;55.654;37.592;2024-01-30T04:03:17;18.85;;;7.22;;
35442;SDS011;21561;55.654;37.592;2024-01-30T04:05:44;19.55;;;7.43;;
35442;SDS011;21561;55.654;37.592;2024-01-30T04:08:11;20.60;;;7.93;;
35442;SDS011;21561;55.654;37.592;2024-01-30T04:10:39;18.52;;;7.32;;
35442;SDS011;21561;55.654;37.592;2024-01-30T04:13:07;18.45;;;7.70;;
35442;SDS011;21561;55.654;37.592;2024-01-30T04:15:37;21.35;;;8.00;;
35442;SDS011;21561;55.654;37.592;2024-01-30T04:18:05;18.27;;;7.13;;
35442;SDS011;21561;55.654;37.592;2024-01-30T04:20:32;19.13;;;7.78;;
35442;SDS011;21561;55.654;37.592;2024-01-30T04:22:59;20.33;;;7.45;;
35442;SDS011;21561;55.654;37.592;2024-01-30T04:25:26;18.77;;;7.68;;
35442;SDS011;21561;55.654;37.592;2024-01-30T04:27:53;18.55;;;7.68;;
35442;SDS011;21561;55.654;37.592;2024-01-30T04:30:21;16.70;;;6.53;;
35442;SDS011;21561;55.654;37.592;2024-01-30T04:32:48;18.48;;;7.80;;
35442;SDS011;21561;55.654;37.592;2024-01-30T04:35:15;18.90;;;7.82;;
35442;SDS011;21561;55.654;37.592;2024-01-30T04:37:42;18.10;;;7.97;;
35442;SDS011;21561;55.654;37.592;2024-01-30T04:40:09;20.65;;;7.55;;
35442;SDS011;21561;55.654;37.592;2024-01-30T04:42:36;19.25;;;7.78;;
35442;SDS011;21561;55.654;37.592;2024-01-30T04:45:03;19.83;;;8.32;;
35442;SDS011;21561;55.654;37.592;2024-01-30T04:47:30;20.08;;;7.45;;
35442;SDS011;21561;55.654;37.592;2024-01-30T04:49:57;20.92;;;7.70;;
35442;SDS011;21561;55.654;37.592;2024-01-30T04:52:24;17.10;;;7.28;;
35442;SDS011;21561;55.654;37.592;2024-01-30T04:54:51;20.08;;;6.68;;
35442;SDS011;21561;55.654;37.592;2024-01-30T04:57:18;19.20;;;7.55;;
35442;SDS011;21561;55.654;37.592;2024-01-30T04:59:45;21.65;;;7.78;;
35442;SDS011;21561;55.654;37.592;2024-01-30T05:02:12;17.73;;;7.18;;
35442;SDS011;21561;55.654;37.592;2024-01-30T05:04:40;16.02;;;5.55;;
35442;SDS011;21561;55.654;37.592;2024-01-30T05:07:08;18.00;;;7.47;;
35442;SDS011;21561;55.654;37.592;2024-01-30T05:09:35;17.35;;;7.22;;
35442;SDS011;21561;55.654;37.592;2024-01-30T05:12:02;17.83;;;7.22;;
35442;SDS011;21561;55.654;37.592;2024-01-30T05:14:29;18.52;;;7.10;;
35442;SDS011;21561;55.654;37.592;2024-01-30T05:16:56;22.08;;;7.90;;
35442;SDS011;21561;55.654;37.592;2024-01-30T05:19:23;18.08;;;7.30;;
35442;SDS011;21561;55.654;37.592;2024-01-30T05:21:50;17.10;;;6.88;;
35442;SDS011;21561;55.654;37.592;2024-01-30T05:24:17;20.55;;;7.82;;
35442;SDS011;21561;55.654;37.592;2024-01-30T05:26:47;17.73;;;7.40;;
35442;SDS011;21561;55.654;37.592;2024-01-30T05:29:14;23.33;;;7.85;;
35442;SDS011;21561;55.654;37.592;2024-01-30T05:31:41;18.85;;;7.40;;
35442;SDS011;21561;55.654;37.592;2024-01-30T05:34:08;19.20;;;7.72;;
35442;SDS011;21561;55.654;37.592;2024-01-30T05:36:35;20.30;;;7.97;;
35442;SDS011;21561;55.654;37.592;2024-01-30T05:39:02;18.58;;;7.53;;
35442;SDS011;21561;55.654;37.592;2024-01-30T05:41:33;21.75;;;8.13;;
35442;SDS011;21561;55.654;37.592;2024-01-30T05:44:00;20.77;;;7.68;;
35442;SDS011;21561;55.654;37.592;2024-01-30T05:46:27;18.35;;;7.50;;
35442;SDS011;21561;55.654;37.592;2024-01-30T05:48:54;23.15;;;8.50;;
35442;SDS011;21561;55.654;37.592;2024-01-30T05:51:21;19.23;;;7.90;;
35442;SDS011;21561;55.654;37.592;2024-01-30T05:53:48;19.63;;;7.80;;
35442;SDS011;21561;55.654;37.592;2024-01-30T05:56:15;20.75;;;8.15;;
35442;SDS011;21561;55.654;37.592;2024-01-30T05:58:42;19.83;;;7.80;;
35442;SDS011;21561;55.654;37.592;2024-01-30T06:01:09;20.02;;;7.78;;
35442;SDS011;21561;55.654;37.592;2024-01-30T06:03:37;21.02;;;8.07;;
35442;SDS011;21561;55.654;37.592;2024-01-30T06:06:05;19.33;;;7.68;;
35442;SDS011;21561;55.654;37.592;2024-01-30T06:08:32;22.08;;;7.47;;
35442;SDS011;21561;55.654;37.592;2024-01-30T06:10:59;19.38;;;7.57;;
35442;SDS011;21561;55.654;37.592;2024-01-30T06:13:26;21.88;;;8.05;;
35442;SDS011;21561;55.654;37.592;2024-01-30T06:15:54;21.88;;;8.05;;
35442;SDS011;21561;55.654;37.592;2024-01-30T06:18:21;19.83;;;7.88;;
35442;SDS011;21561;55.654;37.592;2024-01-30T06:20:48;20.27;;;7.78;;
35442;SDS011;21561;55.654;37.592;2024-01-30T06:23:15;21.65;;;7.75;;
35442;SDS011;21561;55.654;37.592;2024-01-30T06:25:42;19.67;;;8.23;;
35442;SDS011;21561;55.654;37.592;2024-01-30T06:28:09;20.83;;;7.88;;
35442;SDS011;21561;55.654;37.592;2024-01-30T06:30:36;23.85;;;8.52;;
35442;SDS011;21561;55.654;37.592;2024-01-30T06:33:03;20.23;;;7.63;;
35442;SDS011;21561;55.654;37.592;2024-01-30T06:35:30;22.48;;;8.43;;
35442;SDS011;21561;55.654;37.592;2024-01-30T06:37:57;22.42;;;8.55;;
35442;SDS011;21561;55.654;37.592;2024-01-30T06:40:24;18.98;;;7.35;;
35442;SDS011;21561;55.654;37.592;2024-01-30T06:42:51;20.85;;;8.20;;
35442;SDS011;21561;55.654;37.592;2024-01-30T06:45:18;22.10;;;8.93;;
35442;SDS011;21561;55.654;37.592;2024-01-30T06:47:45;19.73;;;8.00;;
35442;SDS011;21561;55.654;37.592;2024-01-30T06:50:12;20.13;;;8.02;;
35442;SDS011;21561;55.654;37.592;2024-01-30T06:52:39;19.98;;;8.60;;
35442;SDS011;21561;55.654;37.592;2024-01-30T06:55:06;19.95;;;8.48;;
35442;SDS011;21561;55.654;37.592;2024-01-30T06:57:33;22.05;;;7.93;;
35442;SDS011;21561;55.654;37.592;2024-01-30T07:00:00;23.05;;;8.45;;
35442;SDS011;21561;55.654;37.592;2024-01-30T07:02:30;21.13;;;7.93;;
35442;SDS011;21561;55.654;37.592;2024-01-30T07:04:57;23.05;;;8.55;;
35442;SDS011;21561;55.654;37.592;2024-01-30T07:07:24;20.52;;;8.20;;
35442;SDS011;21561;55.654;37.592;2024-01-30T07:09:51;20.38;;;8.80;;
35442;SDS011;21561;55.654;37.592;2024-01-30T07:12:23;24.98;;;9.45;;
35442;SDS011;21561;55.654;37.592;2024-01-30T07:14:52;21.00;;;8.48;;
35442;SDS011;21561;55.654;37.592;2024-01-30T07:17:19;23.02;;;9.00;;
35442;SDS011;21561;55.654;37.592;2024-01-30T07:19:46;23.17;;;9.13;;
35442;SDS011;21561;55.654;37.592;2024-01-30T07:22:13;23.77;;;9.60;;
35442;SDS011;21561;55.654;37.592;2024-01-30T07:24:43;24.45;;;8.63;;
35442;SDS011;21561;55.654;37.592;2024-01-30T07:27:15;23.27;;;8.73;;
35442;SDS011;21561;55.654;37.592;2024-01-30T07:29:44;26.83;;;9.35;;
35442;SDS011;21561;55.654;37.592;2024-01-30T07:32:11;23.92;;;8.65;;
35442;SDS011;21561;55.654;37.592;2024-01-30T07:34:38;25.52;;;9.40;;
35442;SDS011;21561;55.654;37.592;2024-01-30T07:37:18;24.63;;;8.75;;
35442;SDS011;21561;55.654;37.592;2024-01-30T07:39:46;26.80;;;10.45;;
35442;SDS011;21561;55.654;37.592;2024-01-30T07:42:14;23.73;;;9.00;;
35442;SDS011;21561;55.654;37.592;2024-01-30T07:44:41;23.20;;;9.15;;
35442;SDS011;21561;55.654;37.592;2024-01-30T07:47:08;27.02;;;10.35;;
35442;SDS011;21561;55.654;37.592;2024-01-30T07:49:35;23.20;;;8.88;;
35442;SDS011;21561;55.654;37.592;2024-01-30T07:52:05;23.42;;;9.23;;
35442;SDS011;21561;55.654;37.592;2024-01-30T07:54:33;24.95;;;9.57;;
35442;SDS011;21561;55.654;37.592;2024-01-30T07:57:00;25.10;;;9.82;;
35442;SDS011;21561;55.654;37.592;2024-01-30T07:59:27;23.55;;;8.90;;
35442;SDS011;21561;55.654;37.592;2024-01-30T08:01:54;25.90;;;9.57;;
35442;SDS011;21561;55.654;37.592;2024-01-30T08:04:22;25.75;;;9.30;;
35442;SDS011;21561;55.654;37.592;2024-01-30T08:06:49;23.05;;;9.45;;
35442;SDS011;21561;55.654;37.592;2024-01-30T08:09:16;24.95;;;10.25;;
35442;SDS011;21561;55.654;37.592;2024-01-30T08:11:43;26.27;;;10.25;;
35442;SDS011;21561;55.654;37.592;2024-01-30T08:14:10;23.67;;;10.25;;
35442;SDS011;21561;55.654;37.592;2024-01-30T08:16:37;24.67;;;9.23;;
35442;SDS011;21561;55.654;37.592;2024-01-30T08:19:04;22.90;;;9.20;;
35442;SDS011;21561;55.654;37.592;2024-01-30T08:21:31;25.23;;;10.20;;
35442;SDS011;21561;55.654;37.592;2024-01-30T08:24:05;22.83;;;9.35;;
35442;SDS011;21561;55.654;37.592;2024-01-30T08:26:33;21.38;;;8.27;;
35442;SDS011;21561;55.654;37.592;2024-01-30T08:29:01;24.13;;;8.73;;
35442;SDS011;21561;55.654;37.592;2024-01-30T08:31:28;25.67;;;9.15;;
35442;SDS011;21561;55.654;37.592;2024-01-30T08:33:55;24.88;;;9.55;;
35442;SDS011;21561;55.654;37.592;2024-01-30T08:36:22;23.77;;;9.98;;
35442;SDS011;21561;55.654;37.592;2024-01-30T08:38:49;24.23;;;10.10;;
35442;SDS011;21561;55.654;37.592;2024-01-30T08:41:21;24.95;;;9.02;;
35442;SDS011;21561;55.654;37.592;2024-01-30T08:43:48;22.02;;;9.18;;
35442;SDS011;21561;55.654;37.592;2024-01-30T08:46:18;24.80;;;9.90;;
35442;SDS011;21561;55.654;37.592;2024-01-30T08:48:46;25.23;;;9.93;;
35442;SDS011;21561;55.654;37.592;2024-01-30T08:51:14;23.88;;;9.45;;
35442;SDS011;21561;55.654;37.592;2024-01-30T08:53:42;23.35;;;9.63;;
35442;SDS011;21561;55.654;37.592;2024-01-30T08:56:09;21.67;;;8.73;;
35442;SDS011;21561;55.654;37.592;2024-01-30T08:58:36;22.38;;;9.32;;
35442;SDS011;21561;55.654;37.592;2024-01-30T09:01:03;23.58;;;8.80;;
35442;SDS011;21561;55.654;37.592;2024-01-30T09:03:32;26.50;;;10.50;;
35442;SDS011;21561;55.654;37.592;2024-01-30T09:05:59;21.92;;;8.98;;
35442;SDS011;21561;55.654;37.592;2024-01-30T09:08:26;23.10;;;9.68;;
35442;SDS011;21561;55.654;37.592;2024-01-30T09:10:53;23.05;;;9.60;;
35442;SDS011;21561;55.654;37.592;2024-01-30T09:13:21;25.38;;;9.43;;
35442;SDS011;21561;55.654;37.592;2024-01-30T09:15:48;22.58;;;9.05;;
35442;SDS011;21561;55.654;37.592;2024-01-30T09:18:16;23.90;;;9.00;;
35442;SDS011;21561;55.654;37.592;2024-01-30T09:20:43;23.60;;;7.90;;
35442;SDS011;21561;55.654;37.592;2024-01-30T09:23:11;24.60;;;9.45;;
35442;SDS011;21561;55.654;37.592;2024-01-30T09:25:38;24.52;;;9.38;;
35442;SDS011;21561;55.654;37.592;2024-01-30T09:28:05;24.73;;;9.27;;
35442;SDS011;21561;55.654;37.592;2024-01-30T09:30:32;23.38;;;9.57;;
35442;SDS011;21561;55.654;37.592;2024-01-30T09:32:59;26.45;;;9.70;;
35442;SDS011;21561;55.654;37.592;2024-01-30T09:35:27;24.23;;;9.77;;
35442;SDS011;21561;55.654;37.592;2024-01-30T09:37:54;25.77;;;9.98;;
35442;SDS011;21561;55.654;37.592;2024-01-30T09:40:21;24.88;;;9.85;;
35442;SDS011;21561;55.654;37.592;2024-01-30T09:42:48;24.60;;;9.68;;
35442;SDS011;21561;55.654;37.592;2024-01-30T09:45:18;20.58;;;8.60;;
35442;SDS011;21561;55.654;37.592;2024-01-30T09:47:45;25.98;;;10.32;;
35442;SDS011;21561;55.654;37.592;2024-01-30T09:50:14;24.65;;;9.73;;
35442;SDS011;21561;55.654;37.592;2024-01-30T09:52:45;27.10;;;10.68;;
35442;SDS011;21561;55.654;37.592;2024-01-30T09:55:13;23.48;;;10.27;;
35442;SDS011;21561;55.654;37.592;2024-01-30T09:57:41;21.98;;;9.45;;
35442;SDS011;21561;55.654;37.592;2024-01-30T10:00:09;25.23;;;9.48;;
35442;SDS011;21561;55.654;37.592;2024-01-30T10:02:36;22.00;;;9.55;;
35442;SDS011;21561;55.654;37.592;2024-01-30T10:05:03;24.48;;;10.32;;
35442;SDS011;21561;55.654;37.592;2024-01-30T10:07:31;24.65;;;10.77;;
35442;SDS011;21561;55.654;37.592;2024-01-30T10:09:58;23.75;;;9.48;;
35442;SDS011;21561;55.654;37.592;2024-01-30T10:12:26;26.77;;;10.93;;
35442;SDS011;21561;55.654;37.592;2024-01-30T10:14:55;24.83;;;10.60;;
35442;SDS011;21561;55.654;37.592;2024-01-30T10:17:24;23.30;;;10.52;;
35442;SDS011;21561;55.654;37.592;2024-01-30T10:19:59;23.73;;;10.35;;
35442;SDS011;21561;55.654;37.592;2024-01-30T10:22:29;22.50;;;10.63;;
35442;SDS011;21561;55.654;37.592;2024-01-30T10:24:57;23.33;;;10.48;;
35442;SDS011;21561;55.654;37.592;2024-01-30T10:27:28;29.65;;;10.73;;
35442;SDS011;21561;55.654;37.592;2024-01-30T10:29:56;20.92;;;9.25;;
35442;SDS011;21561;55.654;37.592;2024-01-30T10:32:23;23.17;;;10.23;;
35442;SDS011;21561;55.654;37.592;2024-01-30T10:34:52;23.25;;;10.57;;
35442;SDS011;21561;55.654;37.592;2024-01-30T10:37:19;22.27;;;9.88;;
35442;SDS011;21561;55.654;37.592;2024-01-30T10:39:52;23.77;;;9.88;;
35442;SDS011;21561;55.654;37.592;2024-01-30T10:42:22;25.45;;;10.32;;
35442;SDS011;21561;55.654;37.592;2024-01-30T10:44:57;24.45;;;10.20;;
35442;SDS011;21561;55.654;37.592;2024-01-30T10:47:34;22.42;;;10.30;;
35442;SDS011;21561;55.654;37.592;2024-01-30T10:50:05;24.80;;;9.98;;
35442;SDS011;21561;55.654;37.592;2024-01-30T10:52:34;21.70;;;9.85;;
35442;SDS011;21561;55.654;37.592;2024-01-30T10:55:02;21.02;;;7.85;;
35442;SDS011;21561;55.654;37.592;2024-01-30T10:57:34;27.27;;;9.75;;
35442;SDS011;21561;55.654;37.592;2024-01-30T11:00:10;23.13;;;10.00;;
35442;SDS011;21561;55.654;37.592;2024-01-30T11:02:42;25.02;;;10.00;;
35442;SDS011;21561;55.654;37.592;2024-01-30T11:05:12;26.33;;;9.35;;
35442;SDS011;21561;55.654;37.592;2024-01-30T11:07:42;24.75;;;11.00;;
35442;SDS011;21561;55.654;37.592;2024-01-30T11:10:11;23.70;;;9.73;;
35442;SDS011;21561;55.654;37.592;2024-01-30T11:12:42;24.40;;;8.95;;
35442;SDS011;21561;55.654;37.592;2024-01-30T11:15:14;24.67;;;10.02;;
35442;SDS011;21561;55.654;37.592;2024-01-30T11:22:45;22.25;;;9.90;;
35442;SDS011;21561;55.654;37.592;2024-01-30T11:25:14;21.38;;;8.77;;
35442;SDS011;21561;55.654;37.592;2024-01-30T11:27:44;26.48;;;9.90;;
35442;SDS011;21561;55.654;37.592;2024-01-30T11:30:28;24.42;;;8.90;;
35442;SDS011;21561;55.654;37.592;2024-01-30T11:33:06;27.25;;;9.60;;
35442;SDS011;21561;55.654;37.592;2024-01-30T11:35:41;24.83;;;9.68;;
35442;SDS011;21561;55.654;37.592;2024-01-30T11:38:11;22.63;;;9.45;;
35442;SDS011;21561;55.654;37.592;2024-01-30T11:40:41;25.02;;;9.60;;
35442;SDS011;21561;55.654;37.592;2024-01-30T11:43:08;25.55;;;10.00;;
35442;SDS011;21561;55.654;37.592;2024-01-30T11:45:36;23.38;;;9.60;;
35442;SDS011;21561;55.654;37.592;2024-01-30T11:48:04;25.55;;;9.73;;
35442;SDS011;21561;55.654;37.592;2024-01-30T11:50:32;25.15;;;10.18;;
35442;SDS011;21561;55.654;37.592;2024-01-30T11:53:01;24.35;;;9.38;;
35442;SDS011;21561;55.654;37.592;2024-01-30T11:55:29;23.30;;;9.15;;
35442;SDS011;21561;55.654;37.592;2024-01-30T11:58:00;22.65;;;9.50;;
35442;SDS011;21561;55.654;37.592;2024-01-30T12:00:28;21.63;;;7.95;;
35442;SDS011;21561;55.654;37.592;2024-01-30T12:02:57;27.00;;;11.07;;
35442;SDS011;21561;55.654;37.592;2024-01-30T12:05:27;24.38;;;10.18;;
35442;SDS011;21561;55.654;37.592;2024-01-30T12:07:55;24.70;;;9.82;;
35442;SDS011;21561;55.654;37.592;2024-01-30T12:10:26;26.10;;;10.10;;
35442;SDS011;21561;55.654;37.592;2024-01-30T12:12:54;22.52;;;8.93;;
35442;SDS011;21561;55.654;37.592;2024-01-30T12:15:22;27.13;;;10.57;;
35442;SDS011;21561;55.654;37.592;2024-01-30T12:17:49;25.25;;;10.30;;
35442;SDS011;21561;55.654;37.592;2024-01-30T12:20:20;24.75;;;9.90;;
35442;SDS011;21561;55.654;37.592;2024-01-30T12:22:49;28.08;;;10.52;;
35442;SDS011;21561;55.654;37.592;2024-01-30T12:25:17;24.48;;;10.55;;
35442;SDS011;21561;55.654;37.592;2024-01-30T12:27:47;24.80;;;9.45;;
35442;SDS011;21561;55.654;37.592;2024-01-30T12:30:19;27.02;;;10.27;;
35442;SDS011;21561;55.654;37.592;2024-01-30T12:32:49;25.42;;;9.68;;
35442;SDS011;21561;55.654;37.592;2024-01-30T12:35:18;26.30;;;10.40;;
35442;SDS011;21561;55.654;37.592;2024-01-30T12:37:47;23.88;;;9.60;;
35442;SDS011;21561;55.654;37.592;2024-01-30T12:40:15;26.30;;;10.27;;
35442;SDS011;21561;55.654;37.592;2024-01-30T12:42:46;24.40;;;9.98;;
35442;SDS011;21561;55.654;37.592;2024-01-30T12:45:17;24.98;;;10.13;;
35442;SDS011;21561;55.654;37.592;2024-01-30T12:47:49;26.10;;;9.95;;
35442;SDS011;21561;55.654;37.592;2024-01-30T12:50:17;24.50;;;9.48;;
35442;SDS011;21561;55.654;37.592;2024-01-30T12:52:45;25.55;;;10.13;;
35442;SDS011;21561;55.654;37.592;2024-01-30T12:55:16;27.40;;;10.35;;
35442;SDS011;21561;55.654;37.592;2024-01-30T12:57:44;23.90;;;10.07;;
35442;SDS011;21561;55.654;37.592;2024-01-30T13:00:11;24.58;;;9.02;;
35442;SDS011;21561;55.654;37.592;2024-01-30T13:02:38;24.98;;;9.82;;
35442;SDS011;21561;55.654;37.592;2024-01-30T13:05:05;24.67;;;9.10;;
35442;SDS011;21561;55.654;37.592;2024-01-30T13:07:34;28.30;;;10.48;;
35442;SDS011;21561;55.654;37.592;2024-01-30T13:10:02;23.83;;;9.57;;
35442;SDS011;21561;55.654;37.592;2024-01-30T13:12:32;23.50;;;9.50;;
35442;SDS011;21561;55.654;37.592;2024-01-30T13:15:00;22.92;;;9.25;;
35442;SDS011;21561;55.654;37.592;2024-01-30T13:17:33;25.70;;;9.68;;
35442;SDS011;21561;55.654;37.592;2024-01-30T13:20:00;25.60;;;9.48;;
35442;SDS011;21561;55.654;37.592;2024-01-30T13:22:36;26.02;;;10.10;;
35442;SDS011;21561;55.654;37.592;2024-01-30T13:25:05;26.23;;;10.43;;
35442;SDS011;21561;55.654;37.592;2024-01-30T13:27:33;25.38;;;9.82;;
35442;SDS011;21561;55.654;37.592;2024-01-30T13:30:00;27.55;;;10.45;;
35442;SDS011;21561;55.654;37.592;2024-01-30T13:32:29;24.98;;;10.60;;
35442;SDS011;21561;55.654;37.592;2024-01-30T13:34:56;25.17;;;9.68;;
35442;SDS011;21561;55.654;37.592;2024-01-30T13:37:23;23.13;;;9.98;;
35442;SDS011;21561;55.654;37.592;2024-01-30T13:39:51;24.67;;;10.55;;
35442;SDS011;21561;55.654;37.592;2024-01-30T13:42:18;29.20;;;11.27;;
35442;SDS011;21561;55.654;37.592;2024-01-30T13:44:45;23.38;;;9.80;;
35442;SDS011;21561;55.654;37.592;2024-01-30T13:47:12;30.90;;;10.30;;
35442;SDS011;21561;55.654;37.592;2024-01-30T13:49:39;28.15;;;10.10;;
35442;SDS011;21561;55.654;37.592;2024-01-30T13:52:07;25.98;;;10.32;;
35442;SDS011;21561;55.654;37.592;2024-01-30T13:54:35;31.30;;;11.13;;
35442;SDS011;21561;55.654;37.592;2024-01-30T13:57:02;24.73;;;9.93;;
35442;SDS011;21561;55.654;37.592;2024-01-30T13:59:29;25.58;;;10.30;;
35442;SDS011;21561;55.654;37.592;2024-01-30T14:01:56;26.30;;;11.30;;
35442;SDS011;21561;55.654;37.592;2024-01-30T14:04:23;26.75;;;10.95;;
35442;SDS011;21561;55.654;37.592;2024-01-30T14:06:50;25.98;;;10.93;;
35442;SDS011;21561;55.654;37.592;2024-01-30T14:09:29;25.60;;;10.40;;
35442;SDS011;21561;55.654;37.592;2024-01-30T14:11:58;25.15;;;10.32;;
35442;SDS011;21561;55.654;37.592;2024-01-30T14:14:25;19.90;;;7.53;;
35442;SDS011;21561;55.654;37.592;2024-01-30T14:16:52;27.85;;;10.15;;
35442;SDS011;21561;55.654;37.592;2024-01-30T14:19:19;32.10;;;11.00;;
35442;SDS011;21561;55.654;37.592;2024-01-30T14:21:46;27.60;;;10.93;;
35442;SDS011;21561;55.654;37.592;2024-01-30T14:24:13;27.13;;;10.82;;
35442;SDS011;21561;55.654;37.592;2024-01-30T14:26:40;27.98;;;10.57;;
35442;SDS011;21561;55.654;37.592;2024-01-30T14:29:07;34.83;;;11.27;;